Kezdőlap
METAR-TAF:

METAR-TAF

Repülőterek :

Brüsszeli repülőtér

Brüsszel, Belgium

földrajzi szélesség: 50-54N, földrajzi hosszúság: 004-32E, magasság: 55 m

Jelenlegi meteorológiai megfigyelések

A jelentés 20 perccel ezelõtt készült, 04:20 UTC
Nyugati szél 10 kt
Hőmérséklet 5°C
Páratartalom 81%
Légköri nyomás 1021 hPa
Látótávolság 10 km, vagy több
felhőtlen 1500 m magasságban, és nincs gomolyfelhõ

METAR: EBBR 100420Z 26010KT CAVOK 05/02 Q1021 NOSIG

Idő: 05:40 (04:40 UTC)

Előrejelzés

A jelentés 5 órával és 30 perccel ezelõtt készült, 23:10 UTC
Az előrejelzés 10-én 00 óra UTC és 11-én 06 óra UTC között érvényes
Nyugati szél 9 kt
Látótávolság 10 km, vagy több
Szórványos felhőzet 2000 lábon

TAF: EBBR 092310Z 1000/1106 28009KT 9999 SCT020

Meteorológiai megfigyelések és előrejelzések több, mint 4000 repülőtéren (METAR és TAF jelentéseket).

A térképen piros és sárga pontok jelzik az elérhető meteorológiai állomásokat.

Mozgassa az egeret a pont fölött, hogy megjelenjen az állomás neve.

Azután kattintson az időjárási megfigyelések és előrejelzések megtekintéséhez.

A térkép megváltoztatása: kattintson a fekete keresztel jelölt zöld gombra ráközelítéshez, a vonallal jelölt zöld gombra távolításhoz, vagy a zöld nyilakra a szomszédos térképek eléréséhez.


METAR-TAF: